Time;durP1;ratioP1;P1;durP2;ratioP2;P2;SDS_P1;SDS_P2;PMS_P1;PMS_P2;Temp;Humidity;BMP_temperature;BMP_pressure;BME280_temperature;BME280_humidity;BME280_pressure;Samples;Min_cycle;Max_cycle;Signal;HPM_P1;HPM_P2
2024/03/11 00:01:02;;;;;;;;;;;;;;;7.73;nan;98830.31;5012069;28;19917;-71
2024/03/11 00:03:32;;;;;;;;;;;;;;;7.71;nan;98819.13;5003883;28;20424;-72
2024/03/11 00:06:01;;;;;;;;;;;;;;;7.69;nan;98815.06;5011516;28;19928;-73
2024/03/11 00:08:26;;;;;;;;;;;;;;;7.68;nan;98810.78;5011307;28;20325;-72
2024/03/11 00:10:59;;;;;;;;;;;;;;;7.65;nan;98815.41;5015078;28;19941;-72
2024/03/11 00:13:32;;;;;;;;;;;;;;;7.66;nan;98810.97;5005277;28;19925;-70
2024/03/11 00:16:01;;;;;;;;;;;;;;;7.64;nan;98818.19;5027522;28;20382;-70
2024/03/11 00:18:28;;;;;;;;;;;;;;;7.60;nan;98817.75;4999678;28;19928;-71
2024/03/11 00:20:55;;;;;;;;;;;;;;;7.59;nan;98817.91;5007689;28;20008;-71
2024/03/11 00:23:25;;;;;;;;;;;;;;;7.59;nan;98825.81;5000554;28;19945;-71
2024/03/11 00:25:51;;;;;;;;;;;;;;;7.59;nan;98823.97;5000462;28;19921;-71
2024/03/11 00:28:19;;;;;;;;;;;;;;;7.58;nan;98822.34;5007439;28;19918;-71
2024/03/11 00:30:46;;;;;;;;;;;;;;;7.60;nan;98816.91;5008211;28;20409;-71
2024/03/11 00:33:13;;;;;;;;;;;;;;;7.61;nan;98814.13;4999786;28;19918;-71
2024/03/11 00:35:43;;;;;;;;;;;;;;;7.65;nan;98812.78;5007893;28;19921;-71
2024/03/11 00:38:09;;;;;;;;;;;;;;;7.63;nan;98820.03;5006724;28;19921;-70
2024/03/11 00:40:35;;;;;;;;;;;;;;;7.65;nan;98818.03;5021317;28;19941;-71
2024/03/11 00:43:01;;;;;;;;;;;;;;;7.67;nan;98812.59;4995703;28;19922;-71
2024/03/11 00:45:27;;;;;;;;;;;;;;;7.67;nan;98817.84;5005325;28;19917;-72
2024/03/11 00:47:53;;;;;;;;;;;;;;;7.65;nan;98831.19;5002434;28;19929;-71
2024/03/11 00:50:20;;;;;;;;;;;;;;;7.66;nan;98821.47;5002757;28;19949;-71
2024/03/11 00:52:47;;;;;;;;;;;;;;;7.65;nan;98825.09;5007373;28;19929;-72
2024/03/11 00:55:12;;;;;;;;;;;;;;;7.66;nan;98826.75;5007527;28;19921;-72
2024/03/11 00:57:39;;;;;;;;;;;;;;;7.66;nan;98837.25;5007688;28;19925;-72
2024/03/11 01:00:05;;;;;;;;;;;;;;;7.64;nan;98828.72;5006522;28;19921;-71
2024/03/11 01:02:32;;;;;;;;;;;;;;;7.63;nan;98840.25;4999074;28;19929;-71
2024/03/11 01:04:58;;;;;;;;;;;;;;;7.65;nan;98838.25;5007126;28;19918;-71
2024/03/11 01:07:27;;;;;;;;;;;;;;;7.62;nan;98836.78;5007658;28;19922;-71
2024/03/11 01:09:53;;;;;;;;;;;;;;;7.62;nan;98838.59;4993506;28;19917;-72
2024/03/11 01:12:20;;;;;;;;;;;;;;;7.65;nan;98846.13;5003937;28;19943;-70
2024/03/11 01:14:46;;;;;;;;;;;;;;;7.64;nan;98839.25;5002855;28;20415;-71
2024/03/11 01:17:11;;;;;;;;;;;;;;;7.60;nan;98836.16;5000322;28;20009;-71
2024/03/11 01:19:40;;;;;;;;;;;;;;;7.60;nan;98848.47;4991471;28;19957;-71
2024/03/11 01:22:06;;;;;;;;;;;;;;;7.60;nan;98848.47;4998847;28;19925;-71
2024/03/11 01:24:32;;;;;;;;;;;;;;;7.59;nan;98855.56;5027051;28;20371;-71
2024/03/11 01:26:57;;;;;;;;;;;;;;;7.58;nan;98846.03;5013306;28;19999;-71
2024/03/11 01:29:26;;;;;;;;;;;;;;;7.59;nan;98846.84;5006270;28;20028;-71
2024/03/11 01:31:51;;;;;;;;;;;;;;;7.56;nan;98855.91;4998736;28;20310;-71
2024/03/11 01:34:21;;;;;;;;;;;;;;;7.57;nan;98851.47;5006507;28;19917;-73
2024/03/11 01:36:49;;;;;;;;;;;;;;;7.54;nan;98857.06;5034580;28;19922;-72
2024/03/11 01:39:25;;;;;;;;;;;;;;;7.55;nan;98861.34;5005019;28;19952;-71
2024/03/11 01:41:54;;;;;;;;;;;;;;;7.55;nan;98862.13;5006890;28;19918;-71
2024/03/11 01:44:21;;;;;;;;;;;;;;;7.56;nan;98870.88;5006193;28;20008;-70
2024/03/11 01:46:47;;;;;;;;;;;;;;;7.55;nan;98861.34;5006870;28;20462;-71
2024/03/11 01:49:16;;;;;;;;;;;;;;;7.53;nan;98865.94;4999054;28;19918;-71
2024/03/11 01:51:43;;;;;;;;;;;;;;;7.52;nan;98867.75;4995747;28;19964;-71
2024/03/11 01:54:10;;;;;;;;;;;;;;;7.56;nan;98865.63;4983991;28;19919;-70
2024/03/11 01:56:37;;;;;;;;;;;;;;;7.54;nan;98867.59;5005134;28;20048;-71
2024/03/11 01:59:03;;;;;;;;;;;;;;;7.55;nan;98880.56;5006455;28;19921;-71
2024/03/11 02:01:29;;;;;;;;;;;;;;;7.54;nan;98878.13;5002646;28;19921;-70
2024/03/11 02:03:56;;;;;;;;;;;;;;;7.52;nan;98877.47;5022206;28;19925;-70
2024/03/11 02:06:24;;;;;;;;;;;;;;;7.52;nan;98882.72;5007599;28;19995;-70
2024/03/11 02:08:50;;;;;;;;;;;;;;;7.53;nan;98889.63;4998913;28;20013;-70
2024/03/11 02:11:17;;;;;;;;;;;;;;;7.50;nan;98882.88;4998925;28;20453;-70
2024/03/11 02:13:44;;;;;;;;;;;;;;;7.51;nan;98892.44;5022443;28;19932;-70
2024/03/11 02:16:11;;;;;;;;;;;;;;;7.49;nan;98899.66;4997757;28;20155;-70
2024/03/11 02:18:37;;;;;;;;;;;;;;;7.48;nan;98905.09;4998707;28;20032;-70
2024/03/11 02:21:02;;;;;;;;;;;;;;;7.45;nan;98909.69;5005442;28;19996;-71
2024/03/11 02:23:28;;;;;;;;;;;;;;;7.45;nan;98914.16;4999624;28;20414;-70
2024/03/11 02:25:55;;;;;;;;;;;;;;;7.37;nan;98920.28;5001485;28;19929;-70
2024/03/11 02:28:22;;;;;;;;;;;;;;;7.35;nan;98924.88;5026243;28;21523;-70
2024/03/11 02:30:51;;;;;;;;;;;;;;;7.36;nan;98920.44;4997632;28;19917;-71
2024/03/11 02:33:16;;;;;;;;;;;;;;;7.31;nan;98922.75;5005386;28;20047;-70
2024/03/11 02:35:42;;;;;;;;;;;;;;;7.31;nan;98928.81;5005064;28;20097;-70
2024/03/11 02:38:08;;;;;;;;;;;;;;;7.30;nan;98929.81;5010504;28;19921;-70
2024/03/11 02:40:38;;;;;;;;;;;;;;;7.29;nan;98925.53;5005190;28;19940;-70
2024/03/11 02:43:05;;;;;;;;;;;;;;;7.29;nan;98925.53;5005276;28;19928;-71
2024/03/11 02:45:31;;;;;;;;;;;;;;;7.28;nan;98929.16;5004787;28;20425;-71
2024/03/11 02:47:57;;;;;;;;;;;;;;;7.24;nan;98925.22;5022218;28;19918;-70
2024/03/11 02:50:23;;;;;;;;;;;;;;;7.23;nan;98929.69;5003171;28;19925;-70
2024/03/11 02:52:49;;;;;;;;;;;;;;;7.23;nan;98923.59;5008667;28;20310;-70
2024/03/11 02:55:21;;;;;;;;;;;;;;;7.27;nan;98931.97;5005617;28;19922;-70
2024/03/11 02:57:48;;;;;;;;;;;;;;;7.26;nan;98928.50;5004854;28;20806;-71
2024/03/11 03:00:17;;;;;;;;;;;;;;;7.27;nan;98926.69;5006503;28;19933;-70
2024/03/11 03:02:42;;;;;;;;;;;;;;;7.30;nan;98921.13;5009604;28;19925;-72
2024/03/11 03:05:08;;;;;;;;;;;;;;;7.29;nan;98924.72;4996899;28;19929;-70
2024/03/11 03:07:37;;;;;;;;;;;;;;;7.32;nan;98930.47;4997960;28;20068;-71
2024/03/11 03:10:03;;;;;;;;;;;;;;;7.33;nan;98937.38;5005342;28;19929;-72
2024/03/11 03:12:31;;;;;;;;;;;;;;;7.32;nan;98941.00;4984567;28;19921;-70
2024/03/11 03:14:58;;;;;;;;;;;;;;;7.30;nan;98936.91;5000439;28;20118;-70
2024/03/11 03:17:24;;;;;;;;;;;;;;;7.34;nan;98939.03;5005437;28;19969;-72
2024/03/11 03:19:50;;;;;;;;;;;;;;;7.32;nan;98941.00;5002299;28;19934;-70
2024/03/11 03:22:15;;;;;;;;;;;;;;;7.31;nan;98939.34;5028501;28;20450;-72
2024/03/11 03:24:42;;;;;;;;;;;;;;;7.31;nan;98941.97;4995674;28;20171;-71
2024/03/11 03:27:08;;;;;;;;;;;;;;;7.33;nan;98944.44;4997159;28;20009;-72
2024/03/11 03:29:33;;;;;;;;;;;;;;;7.32;nan;98943.63;4996897;28;19926;-70
2024/03/11 03:31:58;;;;;;;;;;;;;;;7.34;nan;98944.28;5010192;28;19929;-71
2024/03/11 03:34:27;;;;;;;;;;;;;;;7.34;nan;98935.53;5004900;28;20940;-71
2024/03/11 03:36:53;;;;;;;;;;;;;;;7.35;nan;98952.97;5008647;28;19918;-70
2024/03/11 03:39:20;;;;;;;;;;;;;;;7.35;nan;98952.97;4997167;28;19926;-70
2024/03/11 03:41:46;;;;;;;;;;;;;;;7.34;nan;98948.69;5001321;28;19932;-70
2024/03/11 03:44:11;;;;;;;;;;;;;;;7.33;nan;98945.25;4997337;28;20008;-71
2024/03/11 03:46:37;;;;;;;;;;;;;;;7.33;nan;98953.13;5007459;28;19918;-70
2024/03/11 03:49:02;;;;;;;;;;;;;;;7.32;nan;98951.50;5006270;28;19949;-70
2024/03/11 03:51:28;;;;;;;;;;;;;;;7.33;nan;98960.22;4998270;28;20004;-70
2024/03/11 03:53:56;;;;;;;;;;;;;;;7.34;nan;98964.47;4997876;28;19925;-70
2024/03/11 03:56:25;;;;;;;;;;;;;;;7.35;nan;98961.69;5006312;28;20302;-70
2024/03/11 03:58:51;;;;;;;;;;;;;;;7.35;nan;98961.69;5004470;28;20012;-71
2024/03/11 04:01:18;;;;;;;;;;;;;;;7.35;nan;98961.69;4999687;28;19945;-70
2024/03/11 04:03:43;;;;;;;;;;;;;;;7.35;nan;98961.69;5000447;28;19928;-70
2024/03/11 04:06:09;;;;;;;;;;;;;;;7.34;nan;98975.00;5000157;28;19926;-70
2024/03/11 04:08:35;;;;;;;;;;;;;;;7.34;nan;98970.56;5000191;28;19937;-70
2024/03/11 04:11:01;;;;;;;;;;;;;;;7.33;nan;98963.66;5011871;28;19929;-70
2024/03/11 04:13:27;;;;;;;;;;;;;;;7.35;nan;98966.94;5008220;28;19921;-71
2024/03/11 04:15:56;;;;;;;;;;;;;;;7.32;nan;98972.56;5009287;28;19948;-70
2024/03/11 04:18:23;;;;;;;;;;;;;;;7.36;nan;98979.09;5001041;28;19937;-70
2024/03/11 04:20:56;;;;;;;;;;;;;;;7.36;nan;98968.56;5031538;28;20403;-70
2024/03/11 04:23:28;;;;;;;;;;;;;;;7.36;nan;98973.03;4994258;28;20004;-70
2024/03/11 04:25:54;;;;;;;;;;;;;;;7.39;nan;98970.06;5027003;28;19929;-70
2024/03/11 04:28:21;;;;;;;;;;;;;;;7.39;nan;98973.50;5007659;28;19925;-70
2024/03/11 04:30:47;;;;;;;;;;;;;;;7.39;nan;98984.03;5007965;28;19929;-70
2024/03/11 04:33:16;;;;;;;;;;;;;;;7.42;nan;98977.63;4989550;28;20354;-71
2024/03/11 04:35:43;;;;;;;;;;;;;;;7.41;nan;98978.59;5005408;28;20294;-71
2024/03/11 04:38:12;;;;;;;;;;;;;;;7.42;nan;98974.97;5010831;28;19917;-70
2024/03/11 04:40:39;;;;;;;;;;;;;;;7.42;nan;98978.44;5004939;28;19968;-72
2024/03/11 04:43:05;;;;;;;;;;;;;;;7.42;nan;98975.78;5008239;28;19917;-70
2024/03/11 04:45:31;;;;;;;;;;;;;;;7.41;nan;98968.91;4979520;28;19953;-70
2024/03/11 04:47:59;;;;;;;;;;;;;;;7.41;nan;98966.28;5006575;28;19918;-70
2024/03/11 04:50:25;;;;;;;;;;;;;;;7.39;nan;98973.50;5007251;28;19917;-71
2024/03/11 04:52:51;;;;;;;;;;;;;;;7.41;nan;98975.94;5007676;28;20222;-70
2024/03/11 04:55:18;;;;;;;;;;;;;;;7.40;nan;98979.59;5002407;28;19972;-70
2024/03/11 04:57:45;;;;;;;;;;;;;;;7.41;nan;98978.59;5006834;28;19992;-70
2024/03/11 05:00:12;;;;;;;;;;;;;;;7.40;nan;98979.59;5000187;28;19922;-70
2024/03/11 05:02:39;;;;;;;;;;;;;;;7.38;nan;98987.63;4989522;28;19922;-71
2024/03/11 05:05:08;;;;;;;;;;;;;;;7.41;nan;98987.31;5015457;28;19984;-70
2024/03/11 05:07:34;;;;;;;;;;;;;;;7.41;nan;98987.31;4995701;28;19918;-70
2024/03/11 05:10:00;;;;;;;;;;;;;;;7.39;nan;98984.03;4998988;28;19918;-70
2024/03/11 05:12:30;;;;;;;;;;;;;;;7.36;nan;98981.72;5006730;28;20032;-71
2024/03/11 05:15:05;;;;;;;;;;;;;;;7.38;nan;98992.06;5007292;28;19917;-70
2024/03/11 05:17:30;;;;;;;;;;;;;;;7.37;nan;98993.91;5007371;28;20010;-70
2024/03/11 05:19:56;;;;;;;;;;;;;;;7.37;nan;98988.63;5007150;28;20000;-70
2024/03/11 05:22:23;;;;;;;;;;;;;;;7.34;nan;98998.66;5007146;28;20333;-70
2024/03/11 05:24:50;;;;;;;;;;;;;;;7.33;nan;98995.22;5006476;28;19928;-70
2024/03/11 05:27:17;;;;;;;;;;;;;;;7.30;nan;99006.06;5007415;28;19928;-70
2024/03/11 05:29:43;;;;;;;;;;;;;;;7.28;nan;99010.69;5006273;28;19921;-70
2024/03/11 05:32:09;;;;;;;;;;;;;;;7.26;nan;99009.22;5006687;28;20281;-70
2024/03/11 05:34:34;;;;;;;;;;;;;;;7.26;nan;99015.28;5007334;28;19922;-71
2024/03/11 05:37:00;;;;;;;;;;;;;;;7.25;nan;99015.47;5014689;28;19933;-70
2024/03/11 05:39:26;;;;;;;;;;;;;;;7.24;nan;99017.25;4998332;28;19926;-70
2024/03/11 05:41:52;;;;;;;;;;;;;;;7.21;nan;99007.06;4988565;28;20013;-69
2024/03/11 05:44:19;;;;;;;;;;;;;;;7.19;nan;99012.50;5006716;28;19940;-71
2024/03/11 05:46:45;;;;;;;;;;;;;;;7.21;nan;99020.22;5006418;28;19922;-72
2024/03/11 05:49:13;;;;;;;;;;;;;;;7.18;nan;99025.81;5003070;28;20470;-70
2024/03/11 05:51:42;;;;;;;;;;;;;;;7.19;nan;99030.06;5017101;28;19930;-70
2024/03/11 05:54:16;;;;;;;;;;;;;;;7.19;nan;99032.72;5022636;28;19932;-70
2024/03/11 05:56:43;;;;;;;;;;;;;;;7.22;nan;99024.47;5003691;28;20394;-70
2024/03/11 05:59:09;;;;;;;;;;;;;;;7.22;nan;99024.47;4985055;28;19926;-69
2024/03/11 06:01:35;;;;;;;;;;;;;;;7.24;nan;99038.28;4982085;28;20378;-70
2024/03/11 06:04:02;;;;;;;;;;;;;;;7.28;nan;99033.53;4988870;28;19925;-70
2024/03/11 06:06:28;;;;;;;;;;;;;;;7.26;nan;99040.75;5007850;28;19929;-69
2024/03/11 06:08:55;;;;;;;;;;;;;;;7.28;nan;99046.66;4998085;28;20349;-70
2024/03/11 06:11:20;;;;;;;;;;;;;;;7.31;nan;99044.50;5006680;28;19932;-71
2024/03/11 06:13:46;;;;;;;;;;;;;;;7.32;nan;99051.44;5000669;28;19921;-70
2024/03/11 06:16:12;;;;;;;;;;;;;;;7.35;nan;99050.28;5000399;28;19918;-70
2024/03/11 06:18:38;;;;;;;;;;;;;;;7.39;nan;99060.28;4995406;28;19929;-70
2024/03/11 06:21:04;;;;;;;;;;;;;;;7.41;nan;99063.59;4987670;28;19997;-71
2024/03/11 06:23:32;;;;;;;;;;;;;;;7.44;nan;99065.88;5006511;28;19918;-70
2024/03/11 06:25:57;;;;;;;;;;;;;;;7.48;nan;99065.53;4999281;28;19993;-70
2024/03/11 06:28:23;;;;;;;;;;;;;;;7.52;nan;99072.09;5007189;28;20667;-69
2024/03/11 06:30:49;;;;;;;;;;;;;;;7.59;nan;99076.50;4998016;28;20122;-71
2024/03/11 06:33:16;;;;;;;;;;;;;;;7.62;nan;99085.88;4998501;28;19921;-70
2024/03/11 06:35:42;;;;;;;;;;;;;;;7.66;nan;99084.56;4999942;28;19925;-70
2024/03/11 06:38:08;;;;;;;;;;;;;;;7.70;nan;99091.13;5000659;28;19917;-70
2024/03/11 06:40:34;;;;;;;;;;;;;;;7.73;nan;99096.06;5006383;28;20207;-70
2024/03/11 06:43:00;;;;;;;;;;;;;;;7.75;nan;99099.34;4997999;28;19922;-70
2024/03/11 06:45:26;;;;;;;;;;;;;;;7.76;nan;99090.44;5000515;28;19948;-70
2024/03/11 06:47:52;;;;;;;;;;;;;;;7.79;nan;99105.88;4997944;28;20440;-70
2024/03/11 06:50:18;;;;;;;;;;;;;;;7.84;nan;99108.84;5001325;28;19928;-70
2024/03/11 06:52:46;;;;;;;;;;;;;;;7.89;nan;99118.88;5005292;28;19921;-70
2024/03/11 06:55:12;;;;;;;;;;;;;;;7.98;nan;99117.03;4999897;28;19929;-70
2024/03/11 06:57:41;;;;;;;;;;;;;;;8.06;nan;99122.28;5005851;28;20379;-70
2024/03/11 07:00:17;;;;;;;;;;;;;;;8.28;nan;99118.88;4996252;28;20277;-71
2024/03/11 07:02:45;;;;;;;;;;;;;;;8.76;nan;99133.81;5004993;28;20034;-70
2024/03/11 07:05:14;;;;;;;;;;;;;;;9.30;nan;99133.75;5000293;28;19964;-71
2024/03/11 07:07:44;;;;;;;;;;;;;;;9.71;nan;99125.47;5006811;28;20008;-71
2024/03/11 07:10:12;;;;;;;;;;;;;;;10.16;nan;99140.31;4980860;28;19975;-71
2024/03/11 07:12:42;;;;;;;;;;;;;;;10.49;nan;99144.44;5007047;28;20421;-71
2024/03/11 07:15:09;;;;;;;;;;;;;;;10.71;nan;99151.38;5028935;28;19944;-71
2024/03/11 07:17:35;;;;;;;;;;;;;;;10.79;nan;99156.53;5005088;28;20021;-72
2024/03/11 07:20:00;;;;;;;;;;;;;;;10.81;nan;99151.88;5006998;28;19933;-71
2024/03/11 07:22:27;;;;;;;;;;;;;;;10.87;nan;99171.50;5013463;28;19922;-72
2024/03/11 07:24:53;;;;;;;;;;;;;;;10.86;nan;99174.31;5007200;28;19986;-71
2024/03/11 07:27:19;;;;;;;;;;;;;;;10.70;nan;99176.19;5007569;28;19921;-72
2024/03/11 07:29:45;;;;;;;;;;;;;;;10.39;nan;99176.41;5016272;28;19964;-72
2024/03/11 07:32:11;;;;;;;;;;;;;;;10.19;nan;99181.41;5007486;28;20349;-71
2024/03/11 07:34:42;;;;;;;;;;;;;;;10.03;nan;99186.84;5009065;28;19922;-71
2024/03/11 07:37:09;;;;;;;;;;;;;;;9.96;nan;99187.59;5008270;28;20416;-73
2024/03/11 07:39:36;;;;;;;;;;;;;;;9.98;nan;99192.66;5003816;28;20037;-71
2024/03/11 07:42:01;;;;;;;;;;;;;;;10.01;nan;99189.69;5038423;28;19933;-71
2024/03/11 07:44:28;;;;;;;;;;;;;;;10.00;nan;99188.03;5005704;28;19956;-71
2024/03/11 07:46:54;;;;;;;;;;;;;;;10.10;nan;99201.78;5007902;28;20358;-71
2024/03/11 07:49:20;;;;;;;;;;;;;;;10.20;nan;99201.50;5007126;28;20504;-71
2024/03/11 07:51:46;;;;;;;;;;;;;;;10.39;nan;99203.66;5001262;28;19926;-71
2024/03/11 07:54:12;;;;;;;;;;;;;;;10.53;nan;99207.28;5006759;28;20024;-71
2024/03/11 07:56:38;;;;;;;;;;;;;;;10.62;nan;99213.28;5008318;28;19931;-71
2024/03/11 07:59:07;;;;;;;;;;;;;;;10.81;nan;99211.91;5006884;28;19929;-71
2024/03/11 08:01:33;;;;;;;;;;;;;;;10.86;nan;99221.91;5007980;28;19933;-70
2024/03/11 08:04:02;;;;;;;;;;;;;;;10.88;nan;99226.00;5007645;28;20290;-70
2024/03/11 08:06:28;;;;;;;;;;;;;;;10.80;nan;99224.31;4999493;28;19951;-71
2024/03/11 08:08:54;;;;;;;;;;;;;;;10.77;nan;99232.63;5007899;28;19917;-71
2024/03/11 08:11:20;;;;;;;;;;;;;;;10.84;nan;99241.44;5008582;28;19929;-71
2024/03/11 08:13:46;;;;;;;;;;;;;;;10.88;nan;99236.59;5009289;28;19926;-70
2024/03/11 08:16:12;;;;;;;;;;;;;;;11.09;nan;99242.94;5006348;28;19917;-70
2024/03/11 08:18:42;;;;;;;;;;;;;;;11.29;nan;99249.25;5007844;28;19921;-71
2024/03/11 08:21:10;;;;;;;;;;;;;;;11.52;nan;99258.84;5007679;28;19926;-71
2024/03/11 08:23:37;;;;;;;;;;;;;;;11.86;nan;99258.94;5006269;28;19922;-71
2024/03/11 08:26:09;;;;;;;;;;;;;;;12.11;nan;99264.69;5011099;28;19928;-71
2024/03/11 08:28:38;;;;;;;;;;;;;;;12.17;nan;99260.44;5003646;28;20349;-71
2024/03/11 08:31:07;;;;;;;;;;;;;;;12.20;nan;99265.34;5002729;28;19929;-71
2024/03/11 08:33:35;;;;;;;;;;;;;;;12.46;nan;99267.34;5036395;28;20453;-71
2024/03/11 08:36:05;;;;;;;;;;;;;;;13.17;nan;99272.38;5011401;28;19933;-73
2024/03/11 08:38:32;;;;;;;;;;;;;;;13.72;nan;99277.63;5011352;28;19926;-71
2024/03/11 08:41:01;;;;;;;;;;;;;;;13.49;nan;99275.38;5011094;28;19925;-71
2024/03/11 08:43:29;;;;;;;;;;;;;;;13.36;nan;99289.41;5007133;28;19930;-70
2024/03/11 08:45:57;;;;;;;;;;;;;;;13.49;nan;99282.50;5008081;28;19921;-71
2024/03/11 08:48:23;;;;;;;;;;;;;;;13.76;nan;99284.19;5006632;28;19925;-71
2024/03/11 08:50:49;;;;;;;;;;;;;;;13.89;nan;99285.22;5000686;28;19929;-71
2024/03/11 08:53:15;;;;;;;;;;;;;;;13.94;nan;99285.41;5006850;28;20486;-70
2024/03/11 08:55:42;;;;;;;;;;;;;;;14.19;nan;99285.63;5007542;28;19932;-70
2024/03/11 08:58:09;;;;;;;;;;;;;;;14.47;nan;99289.88;5029899;28;19921;-70
2024/03/11 09:00:37;;;;;;;;;;;;;;;14.79;nan;99293.53;5003098;28;20037;-70
2024/03/11 09:03:06;;;;;;;;;;;;;;;15.13;nan;99300.34;5022619;28;20423;-71
2024/03/11 09:05:32;;;;;;;;;;;;;;;15.55;nan;99299.94;5004353;28;19936;-71
2024/03/11 09:07:59;;;;;;;;;;;;;;;15.98;nan;99307.28;5006892;28;19921;-71
2024/03/11 09:10:27;;;;;;;;;;;;;;;16.28;nan;99300.25;5005528;28;19929;-71
2024/03/11 09:12:54;;;;;;;;;;;;;;;16.50;nan;99311.31;5006680;28;19930;-71
2024/03/11 09:15:23;;;;;;;;;;;;;;;16.86;nan;99315.09;5007744;28;19922;-71
2024/03/11 09:17:50;;;;;;;;;;;;;;;16.95;nan;99308.41;5003276;28;20306;-71
2024/03/11 09:20:17;;;;;;;;;;;;;;;17.37;nan;99305.81;4987309;28;19936;-71
2024/03/11 09:22:53;;;;;;;;;;;;;;;17.38;nan;99310.13;5024770;28;19922;-71
2024/03/11 09:25:23;;;;;;;;;;;;;;;17.62;nan;99320.94;5006305;28;19922;-72
2024/03/11 09:27:51;;;;;;;;;;;;;;;17.68;nan;99322.66;5007090;28;19921;-71
2024/03/11 09:30:17;;;;;;;;;;;;;;;18.13;nan;99313.38;5001706;28;19926;-71
2024/03/11 09:32:44;;;;;;;;;;;;;;;18.43;nan;99321.34;5000481;28;20446;-71
2024/03/11 09:35:12;;;;;;;;;;;;;;;18.93;nan;99326.22;4995692;28;19936;-70
2024/03/11 09:37:39;;;;;;;;;;;;;;;18.97;nan;99330.03;4995639;28;20384;-71
2024/03/11 09:40:09;;;;;;;;;;;;;;;18.84;nan;99325.75;4986020;28;19926;-71
2024/03/11 09:42:36;;;;;;;;;;;;;;;18.84;nan;99328.44;5029412;28;20367;-70
2024/03/11 09:45:06;;;;;;;;;;;;;;;17.76;nan;99341.09;5005019;28;20367;-71
2024/03/11 09:47:32;;;;;;;;;;;;;;;16.90;nan;99337.66;5005314;28;19929;-70
2024/03/11 09:49:59;;;;;;;;;;;;;;;17.44;nan;99337.81;5002378;28;19949;-70
2024/03/11 09:52:26;;;;;;;;;;;;;;;17.62;nan;99339.63;5005152;28;20012;-71
2024/03/11 09:54:53;;;;;;;;;;;;;;;17.16;nan;99339.19;5006392;28;19921;-71
2024/03/11 09:57:19;;;;;;;;;;;;;;;17.89;nan;99348.13;5006216;28;20378;-70
2024/03/11 09:59:49;;;;;;;;;;;;;;;17.49;nan;99345.16;5005547;28;19991;-71
2024/03/11 10:02:19;;;;;;;;;;;;;;;17.12;nan;99347.88;5005286;28;19963;-70
2024/03/11 10:04:45;;;;;;;;;;;;;;;17.73;nan;99352.25;5005632;28;19949;-70
2024/03/11 10:07:11;;;;;;;;;;;;;;;18.18;nan;99354.44;5003590;28;19929;-71
2024/03/11 10:09:44;;;;;;;;;;;;;;;17.81;nan;99351.94;4996915;28;20186;-71
2024/03/11 10:12:10;;;;;;;;;;;;;;;17.07;nan;99350.41;5006015;28;20223;-71
2024/03/11 10:14:38;;;;;;;;;;;;;;;17.62;nan;99332.44;5003484;28;19948;-71
2024/03/11 10:17:20;;;;;;;;;;;;;;;18.58;nan;99347.63;4997545;28;20029;-71
2024/03/11 10:19:59;;;;;;;;;;;;;;;19.15;nan;99352.38;5017880;28;20225;-71
2024/03/11 10:22:26;;;;;;;;;;;;;;;19.69;nan;99342.19;5005529;28;19932;-71
2024/03/11 10:24:54;;;;;;;;;;;;;;;20.39;nan;99342.81;5005896;28;20151;-70
2024/03/11 10:27:22;;;;;;;;;;;;;;;20.89;nan;99347.31;5008386;28;19929;-70
2024/03/11 10:29:50;;;;;;;;;;;;;;;20.60;nan;99349.34;5007293;28;19928;-70
2024/03/11 10:32:42;;;;;;;;;;;;;;;20.77;nan;99358.97;5005613;28;19925;-70
2024/03/11 10:35:11;;;;;;;;;;;;;;;20.79;nan;99350.69;5001911;28;19953;-70
2024/03/11 10:37:37;;;;;;;;;;;;;;;21.00;nan;99355.28;5005061;28;19955;-70
2024/03/11 10:40:10;;;;;;;;;;;;;;;20.02;nan;99365.59;5004611;28;19932;-70
2024/03/11 10:42:37;;;;;;;;;;;;;;;18.90;nan;99358.81;5005447;28;19929;-70
2024/03/11 10:45:05;;;;;;;;;;;;;;;18.17;nan;99357.38;5005308;28;19956;-70
2024/03/11 10:47:31;;;;;;;;;;;;;;;17.50;nan;99352.16;5002138;28;19940;-69
2024/03/11 10:50:00;;;;;;;;;;;;;;;17.73;nan;99351.41;4985517;28;19922;-69
2024/03/11 10:52:30;;;;;;;;;;;;;;;17.57;nan;99363.56;4987863;28;19922;-69
2024/03/11 10:54:58;;;;;;;;;;;;;;;18.15;nan;99359.47;5004925;28;20379;-69
2024/03/11 10:57:27;;;;;;;;;;;;;;;17.71;nan;99370.38;5029994;28;20334;-69
2024/03/11 10:59:53;;;;;;;;;;;;;;;17.96;nan;99375.56;5003955;28;20191;-69
2024/03/11 11:02:27;;;;;;;;;;;;;;;17.45;nan;99370.69;5005542;28;20421;-69
2024/03/11 11:04:53;;;;;;;;;;;;;;;16.73;nan;99380.09;5013408;28;20078;-69
2024/03/11 11:07:31;;;;;;;;;;;;;;;16.45;nan;99382.41;5005115;28;19928;-69
2024/03/11 11:10:01;;;;;;;;;;;;;;;15.71;nan;99382.91;4990622;28;19925;-69
2024/03/11 11:12:30;;;;;;;;;;;;;;;15.20;nan;99385.53;5004304;28;20005;-70
2024/03/11 11:15:07;;;;;;;;;;;;;;;15.26;nan;99385.53;5001042;28;20413;-69
2024/03/11 11:17:38;;;;;;;;;;;;;;;15.88;nan;99380.53;5018581;28;19928;-68
2024/03/11 11:20:29;;;;;;;;;;;;;;;17.04;nan;99372.19;5010805;28;20149;-69
2024/03/11 11:22:50;;;;;;;;;;;;;;;16.64;nan;99378.75;5009009;28;20427;-69
2024/03/11 11:25:33;;;;;;;;;;;;;;;16.71;nan;99382.16;4988960;28;19929;-69
2024/03/11 11:27:59;;;;;;;;;;;;;;;18.20;nan;99389.00;5008364;28;20463;-69
2024/03/11 11:30:28;;;;;;;;;;;;;;;19.31;nan;99387.28;5008689;28;20389;-70
2024/03/11 11:32:54;;;;;;;;;;;;;;;19.64;nan;99383.13;5007613;28;20641;-70
2024/03/11 11:35:36;;;;;;;;;;;;;;;18.91;nan;99387.25;5005226;28;21013;-70
2024/03/11 11:38:27;;;;;;;;;;;;;;;17.62;nan;99374.38;5006968;28;20314;-70
2024/03/11 11:40:53;;;;;;;;;;;;;;;16.55;nan;99380.06;5007098;28;19960;-69
2024/03/11 11:43:39;;;;;;;;;;;;;;;16.71;nan;99376.00;4996692;28;19928;-70
2024/03/11 11:46:05;;;;;;;;;;;;;;;17.87;nan;99382.28;5004814;28;20449;-69
2024/03/11 11:48:31;;;;;;;;;;;;;;;18.06;nan;99384.91;5003663;28;20348;-69
2024/03/11 11:50:58;;;;;;;;;;;;;;;17.70;nan;99374.06;5014440;28;19955;-69
2024/03/11 11:53:29;;;;;;;;;;;;;;;17.76;nan;99378.50;5008223;28;19975;-70
2024/03/11 11:55:56;;;;;;;;;;;;;;;18.03;nan;99378.97;5007371;28;19976;-69
2024/03/11 11:58:22;;;;;;;;;;;;;;;18.23;nan;99381.34;4997727;28;19921;-70
2024/03/11 12:00:57;;;;;;;;;;;;;;;18.26;nan;99382.75;5019488;28;19933;-70
2024/03/11 12:03:32;;;;;;;;;;;;;;;18.09;nan;99379.94;5048121;28;20111;-70
2024/03/11 12:06:02;;;;;;;;;;;;;;;17.90;nan;99381.84;5008422;28;19944;-69
2024/03/11 12:08:29;;;;;;;;;;;;;;;17.78;nan;99387.13;5010740;28;19925;-70
2024/03/11 12:11:12;;;;;;;;;;;;;;;17.61;nan;99380.75;5009242;28;19926;-69
2024/03/11 12:13:39;;;;;;;;;;;;;;;17.47;nan;99380.13;5008799;28;20025;-69
2024/03/11 12:16:10;;;;;;;;;;;;;;;16.97;nan;99388.28;5017384;28;20008;-69
2024/03/11 12:18:39;;;;;;;;;;;;;;;16.69;nan;99384.22;5008958;28;20026;-69
2024/03/11 12:21:11;;;;;;;;;;;;;;;16.50;nan;99369.22;5011455;28;19925;-69
2024/03/11 12:23:37;;;;;;;;;;;;;;;16.67;nan;99380.16;5009055;28;20016;-69
2024/03/11 12:26:03;;;;;;;;;;;;;;;16.64;nan;99380.59;5010841;28;19921;-69
2024/03/11 12:28:29;;;;;;;;;;;;;;;16.32;nan;99378.78;5016590;28;19925;-69
2024/03/11 12:30:55;;;;;;;;;;;;;;;15.82;nan;99384.06;5020332;28;19921;-69
2024/03/11 12:33:23;;;;;;;;;;;;;;;15.65;nan;99388.22;5019616;28;20481;-69
2024/03/11 12:35:52;;;;;;;;;;;;;;;15.63;nan;99385.75;5014996;28;19921;-68
2024/03/11 12:38:18;;;;;;;;;;;;;;;15.42;nan;99386.91;5014862;28;20793;-69
2024/03/11 12:40:46;;;;;;;;;;;;;;;15.05;nan;99386.59;5015890;28;19949;-69
2024/03/11 12:43:22;;;;;;;;;;;;;;;14.80;nan;99380.31;5021171;28;19925;-69
2024/03/11 12:45:55;;;;;;;;;;;;;;;14.67;nan;99386.47;5011390;28;19933;-69
2024/03/11 12:48:22;;;;;;;;;;;;;;;14.49;nan;99383.56;5017758;28;20024;-69
2024/03/11 12:50:52;;;;;;;;;;;;;;;14.37;nan;99392.19;5024996;28;20363;-69
2024/03/11 12:53:18;;;;;;;;;;;;;;;14.30;nan;99388.72;5008829;28;19960;-69
2024/03/11 12:55:44;;;;;;;;;;;;;;;14.24;nan;99392.97;5016583;28;19956;-69
2024/03/11 12:58:18;;;;;;;;;;;;;;;14.32;nan;99385.81;5016603;28;19920;-70
2024/03/11 13:00:47;;;;;;;;;;;;;;;14.30;nan;99390.53;5040539;28;19932;-69
2024/03/11 13:03:22;;;;;;;;;;;;;;;14.19;nan;99392.78;5010244;28;19960;-69
2024/03/11 13:05:54;;;;;;;;;;;;;;;14.19;nan;99394.63;5007494;28;19931;-69
2024/03/11 13:08:20;;;;;;;;;;;;;;;14.16;nan;99395.84;5014760;28;19921;-69
2024/03/11 13:10:48;;;;;;;;;;;;;;;13.98;nan;99396.41;5008226;28;19921;-69
2024/03/11 13:13:19;;;;;;;;;;;;;;;14.00;nan;99397.03;5007870;28;19995;-69
2024/03/11 13:15:48;;;;;;;;;;;;;;;14.05;nan;99396.44;5008193;28;19921;-69